createdAt,value
2017-03-04T00:00:56.396Z,0
2017-03-04T00:02:09.036Z,0
2017-03-04T00:03:22.262Z,0
2017-03-04T00:04:37.707Z,0
2017-03-04T00:05:51.525Z,0
2017-03-04T00:07:07.526Z,0
2017-03-04T00:08:23.585Z,0
2017-03-04T00:09:39.973Z,0
2017-03-04T00:10:55.481Z,0
2017-03-04T00:12:07.301Z,0
2017-03-04T00:13:21.502Z,0
2017-03-04T00:14:33.210Z,0
2017-03-04T00:15:43.712Z,0
2017-03-04T00:16:57.726Z,0
2017-03-04T00:18:12.115Z,0
2017-03-04T00:19:27.570Z,0
2017-03-04T00:20:41.806Z,0
2017-03-04T00:21:54.657Z,0
2017-03-04T00:23:10.686Z,0
2017-03-04T00:24:26.141Z,0
2017-03-04T00:25:35.985Z,0
2017-03-04T00:26:47.259Z,0
2017-03-04T00:27:58.567Z,0
2017-03-04T00:29:10.644Z,0
2017-03-04T00:30:21.821Z,0
2017-03-04T00:31:32.809Z,0
2017-03-04T00:32:46.252Z,0
2017-03-04T00:33:59.668Z,0
2017-03-04T00:35:08.674Z,0
2017-03-04T00:36:17.957Z,0
2017-03-04T00:37:27.036Z,0
2017-03-04T00:38:36.436Z,0
2017-03-04T00:39:45.419Z,0
2017-03-04T00:40:54.402Z,0
2017-03-04T00:42:03.719Z,0
2017-03-04T00:43:12.696Z,0
2017-03-04T00:44:22.090Z,0
2017-03-04T00:45:31.099Z,0
2017-03-04T00:46:40.083Z,0
2017-03-04T00:47:49.411Z,0
2017-03-04T00:48:59.162Z,0
2017-03-04T00:50:08.167Z,0
2017-03-04T00:51:17.151Z,0
2017-03-04T00:52:26.127Z,0
2017-03-04T00:53:35.366Z,0
2017-03-04T00:54:44.344Z,0
2017-03-04T00:55:53.327Z,0
2017-03-04T00:57:02.317Z,0
2017-03-04T00:58:11.497Z,0
2017-03-04T00:59:20.800Z,0
2017-03-04T01:00:29.803Z,0
2017-03-04T01:01:39.205Z,0
2017-03-04T01:02:48.219Z,0
2017-03-04T01:03:57.199Z,0
2017-03-04T01:05:06.896Z,0
2017-03-04T01:06:15.918Z,0
2017-03-04T01:07:25.088Z,0
2017-03-04T01:08:34.188Z,0
2017-03-04T01:09:43.169Z,0
2017-03-04T01:10:52.445Z,0
2017-03-04T01:12:01.450Z,0
2017-03-04T01:13:10.444Z,0
2017-03-04T01:14:19.523Z,0
2017-03-04T01:15:28.685Z,0
2017-03-04T01:16:37.981Z,0
2017-03-04T01:17:46.975Z,0
2017-03-04T01:18:55.960Z,0
2017-03-04T01:20:04.945Z,0
2017-03-04T01:21:13.919Z,0
2017-03-04T01:22:23.144Z,0
2017-03-04T01:23:32.121Z,0
2017-03-04T01:24:41.120Z,0
2017-03-04T01:25:50.203Z,0
2017-03-04T01:26:59.199Z,0
2017-03-04T01:28:08.517Z,0
2017-03-04T01:29:17.512Z,0
2017-03-04T01:30:26.590Z,0
2017-03-04T01:31:35.568Z,0
2017-03-04T01:32:44.579Z,0
2017-03-04T01:33:53.878Z,0
2017-03-04T01:35:03.275Z,0
2017-03-04T01:36:12.270Z,0
2017-03-04T01:37:21.296Z,0
2017-03-04T01:38:30.275Z,0
2017-03-04T01:39:39.558Z,0
2017-03-04T01:40:48.629Z,0
2017-03-04T01:41:57.610Z,0
2017-03-04T01:43:06.588Z,0
2017-03-04T01:44:15.980Z,0
2017-03-04T01:45:25.279Z,0
2017-03-04T01:46:34.289Z,0
2017-03-04T01:47:43.274Z,0
2017-03-04T01:48:52.344Z,0
2017-03-04T01:50:01.762Z,0
2017-03-04T01:51:10.993Z,0
2017-03-04T01:52:19.973Z,0
2017-03-04T01:53:28.960Z,0
2017-03-04T01:54:37.940Z,0
2017-03-04T01:55:47.031Z,0
2017-03-04T01:56:56.383Z,0
2017-03-04T01:58:05.387Z,0
2017-03-04T01:59:14.358Z,0
2017-03-04T02:00:23.842Z,0
2017-03-04T02:01:32.816Z,0
2017-03-04T02:02:42.205Z,0
2017-03-04T02:03:51.632Z,0
2017-03-04T02:05:00.642Z,0
2017-03-04T02:06:09.619Z,0
2017-03-04T02:07:18.606Z,0
2017-03-04T02:08:27.848Z,0
2017-03-04T02:09:36.825Z,0
2017-03-04T02:10:45.906Z,0
2017-03-04T02:11:54.916Z,0
2017-03-04T02:13:03.898Z,0
2017-03-04T02:14:13.181Z,0
2017-03-04T02:15:22.163Z,0
2017-03-04T02:16:31.233Z,0
2017-03-04T02:17:40.231Z,0
2017-03-04T02:18:49.234Z,0
2017-03-04T02:19:58.483Z,0
2017-03-04T02:21:07.592Z,0
2017-03-04T02:22:16.574Z,0
2017-03-04T02:23:25.567Z,0
2017-03-04T02:24:34.566Z,0
2017-03-04T02:25:43.836Z,0
2017-03-04T02:26:52.821Z,0
2017-03-04T02:28:01.800Z,0
2017-03-04T02:29:10.795Z,0
2017-03-04T02:30:20.183Z,0
2017-03-04T02:31:29.466Z,0
2017-03-04T02:32:38.857Z,0
2017-03-04T02:33:47.858Z,0
2017-03-04T02:34:57.305Z,0
2017-03-04T02:36:06.292Z,0
2017-03-04T02:37:15.584Z,0
2017-03-04T02:38:24.575Z,0
2017-03-04T02:39:33.567Z,0
2017-03-04T02:40:42.542Z,0
2017-03-04T02:41:51.524Z,0
2017-03-04T02:43:00.844Z,0
2017-03-04T02:44:09.922Z,0
2017-03-04T02:45:18.932Z,0
2017-03-04T02:46:27.939Z,0
2017-03-04T02:47:36.919Z,0
2017-03-04T02:48:46.282Z,0
2017-03-04T02:49:55.282Z,0
2017-03-04T02:51:04.341Z,0
2017-03-04T02:52:13.336Z,0
2017-03-04T02:53:22.347Z,0
2017-03-04T02:54:31.690Z,0
2017-03-04T02:55:40.665Z,0
2017-03-04T02:56:49.692Z,0
2017-03-04T02:57:58.687Z,0
2017-03-04T02:59:07.680Z,0
2017-03-04T03:00:16.965Z,0
2017-03-04T03:01:25.944Z,0
2017-03-04T03:02:34.930Z,0
2017-03-04T03:03:43.913Z,0
2017-03-04T03:04:52.902Z,0
2017-03-04T03:06:02.210Z,0
2017-03-04T03:07:11.202Z,0
2017-03-04T03:08:20.209Z,0
2017-03-04T03:09:29.615Z,0
2017-03-04T03:10:38.623Z,0
2017-03-04T03:11:47.945Z,0
2017-03-04T03:12:56.941Z,0
2017-03-04T03:14:05.917Z,0
2017-03-04T03:15:14.985Z,0
2017-03-04T03:16:23.981Z,0
2017-03-04T03:17:33.276Z,0
2017-03-04T03:18:42.276Z,0
2017-03-04T03:19:51.262Z,0
2017-03-04T03:21:00.239Z,0
2017-03-04T03:22:09.224Z,0
2017-03-04T03:23:18.504Z,0
2017-03-04T03:24:27.563Z,0
2017-03-04T03:25:36.558Z,0
2017-03-04T03:26:45.550Z,0
2017-03-04T03:27:54.553Z,0
2017-03-04T03:29:03.842Z,0
2017-03-04T03:30:13.242Z,0
2017-03-04T03:31:22.226Z,0
2017-03-04T03:32:31.222Z,0
2017-03-04T03:33:40.218Z,0
2017-03-04T03:34:49.901Z,0
2017-03-04T03:35:58.969Z,0
2017-03-04T03:37:07.966Z,0
2017-03-04T03:38:16.951Z,0
2017-03-04T03:39:25.930Z,0
2017-03-04T03:40:35.643Z,0
2017-03-04T03:41:44.641Z,0
2017-03-04T03:42:53.708Z,0
2017-03-04T03:44:02.697Z,0
2017-03-04T03:45:11.686Z,0
2017-03-04T03:46:20.993Z,0
2017-03-04T03:47:29.989Z,0
2017-03-04T03:48:38.978Z,0
2017-03-04T03:49:48.143Z,0
2017-03-04T03:50:57.126Z,0
2017-03-04T03:52:06.427Z,0
2017-03-04T03:53:15.443Z,0
2017-03-04T03:54:24.508Z,0
2017-03-04T03:55:33.484Z,0
2017-03-04T03:56:42.481Z,0
2017-03-04T03:57:51.717Z,0
2017-03-04T03:59:00.702Z,0
2017-03-04T04:00:09.692Z,0
2017-03-04T04:01:18.685Z,0
2017-03-04T04:02:28.175Z,0
2017-03-04T04:03:37.465Z,0
2017-03-04T04:04:46.444Z,0
2017-03-04T04:05:55.433Z,0
2017-03-04T04:07:04.458Z,0
2017-03-04T04:08:13.436Z,0
2017-03-04T04:09:22.914Z,0
2017-03-04T04:10:31.926Z,0
2017-03-04T04:11:40.922Z,0
2017-03-04T04:12:49.918Z,0
2017-03-04T04:13:58.898Z,0
2017-03-04T04:15:08.631Z,0
2017-03-04T04:16:17.706Z,0
2017-03-04T04:17:26.687Z,0
2017-03-04T04:18:35.755Z,0
2017-03-04T04:19:44.740Z,0
2017-03-04T04:20:54.021Z,0
2017-03-04T04:22:03.110Z,0
2017-03-04T04:23:12.203Z,0
2017-03-04T04:24:21.603Z,0
2017-03-04T04:25:31.010Z,0
2017-03-04T04:26:40.293Z,0
2017-03-04T04:27:49.273Z,0
2017-03-04T04:28:58.273Z,0
2017-03-04T04:30:07.263Z,0
2017-03-04T04:31:16.512Z,0
2017-03-04T04:32:25.807Z,0
2017-03-04T04:33:34.786Z,0
2017-03-04T04:34:43.781Z,0
2017-03-04T04:35:53.246Z,0
2017-03-04T04:37:02.230Z,0
2017-03-04T04:38:11.476Z,0
2017-03-04T04:39:20.469Z,0
2017-03-04T04:40:29.464Z,0
2017-03-04T04:41:38.459Z,0
2017-03-04T04:42:47.560Z,0
2017-03-04T04:43:56.788Z,0
2017-03-04T04:45:05.773Z,0
2017-03-04T04:46:14.760Z,0
2017-03-04T04:47:23.758Z,0
2017-03-04T04:48:32.734Z,0
2017-03-04T04:49:42.039Z,0
2017-03-04T04:50:51.029Z,0
2017-03-04T04:52:00.046Z,0
2017-03-04T04:53:09.030Z,0
2017-03-04T04:54:18.015Z,0
2017-03-04T04:55:27.298Z,0
2017-03-04T04:56:36.288Z,0
2017-03-04T04:57:45.285Z,0
2017-03-04T04:58:54.698Z,0
2017-03-04T05:00:03.690Z,0
2017-03-04T05:01:13.013Z,0
2017-03-04T05:02:21.981Z,0
2017-03-04T05:03:31.064Z,0
2017-03-04T05:04:40.458Z,0
2017-03-04T05:05:49.464Z,0
2017-03-04T05:06:58.841Z,0
2017-03-04T05:08:08.339Z,0
2017-03-04T05:09:17.344Z,0
2017-03-04T05:10:26.369Z,0
2017-03-04T05:11:35.357Z,0
2017-03-04T05:12:44.658Z,0
2017-03-04T05:13:53.646Z,0
2017-03-04T05:15:02.639Z,0
2017-03-04T05:16:11.631Z,0
2017-03-04T05:17:20.618Z,0
2017-03-04T05:18:29.868Z,0
2017-03-04T05:19:38.858Z,0
2017-03-04T05:20:47.861Z,0
2017-03-04T05:21:56.844Z,0
2017-03-04T05:23:06.246Z,0
2017-03-04T05:24:15.487Z,0
2017-03-04T05:25:24.482Z,0
2017-03-04T05:26:33.468Z,0
2017-03-04T05:27:42.452Z,0
2017-03-04T05:28:51.528Z,0
2017-03-04T05:30:00.812Z,0
2017-03-04T05:31:10.227Z,0
2017-03-04T05:32:19.211Z,0
2017-03-04T05:33:28.268Z,0
2017-03-04T05:34:37.243Z,0
2017-03-04T05:35:46.614Z,0
2017-03-04T05:36:55.607Z,0
2017-03-04T05:38:05.010Z,0
2017-03-04T05:39:13.994Z,0
2017-03-04T05:40:22.965Z,0
2017-03-04T05:41:32.808Z,0
2017-03-04T05:42:41.784Z,0
2017-03-04T05:43:50.777Z,0
2017-03-04T05:44:59.783Z,0
2017-03-04T05:46:08.779Z,0
2017-03-04T05:47:18.077Z,0
2017-03-04T05:48:27.091Z,0
2017-03-04T05:49:36.102Z,0
2017-03-04T05:50:45.107Z,0
2017-03-04T05:51:54.090Z,0
2017-03-04T05:53:03.333Z,0
2017-03-04T05:54:12.327Z,0
2017-03-04T05:55:21.310Z,0
2017-03-04T05:56:30.717Z,0
2017-03-04T05:57:39.706Z,0
2017-03-04T05:58:49.082Z,5
2017-03-04T05:59:58.057Z,5
2017-03-04T06:01:07.060Z,5
2017-03-04T06:02:16.053Z,5
2017-03-04T06:03:25.441Z,5
2017-03-04T06:04:34.730Z,5
2017-03-04T06:05:43.716Z,5
2017-03-04T06:06:52.705Z,5
2017-03-04T06:08:01.767Z,5
2017-03-04T06:09:10.746Z,10
2017-03-04T06:10:20.765Z,10
2017-03-04T06:11:29.769Z,10
2017-03-04T06:12:38.746Z,10
2017-03-04T06:13:47.745Z,10
2017-03-04T06:14:56.740Z,10
2017-03-04T06:16:05.972Z,10
2017-03-04T06:17:14.947Z,15
2017-03-04T06:18:23.936Z,15
2017-03-04T06:19:32.937Z,15
2017-03-04T06:20:42.346Z,15
2017-03-04T06:21:51.585Z,15
2017-03-04T06:23:00.567Z,15
2017-03-04T06:24:09.562Z,15
2017-03-04T06:25:18.560Z,20
2017-03-04T06:26:27.536Z,20
2017-03-04T06:27:36.923Z,20
2017-03-04T06:28:45.931Z,20
2017-03-04T06:29:55.004Z,20
2017-03-04T06:31:03.997Z,20
2017-03-04T06:32:12.970Z,25
2017-03-04T06:33:22.216Z,25
2017-03-04T06:34:31.281Z,25
2017-03-04T06:35:40.273Z,25
2017-03-04T06:36:49.262Z,25
2017-03-04T06:37:58.238Z,25
2017-03-04T06:39:07.951Z,30
2017-03-04T06:40:16.938Z,30
2017-03-04T06:41:25.917Z,30
2017-03-04T06:42:35.085Z,30
2017-03-04T06:43:44.087Z,30
2017-03-04T06:44:53.311Z,30
2017-03-04T06:46:02.300Z,30
2017-03-04T06:47:11.688Z,35
2017-03-04T06:48:21.670Z,35
2017-03-04T06:49:30.662Z,35
2017-03-04T06:50:39.893Z,40
2017-03-04T06:51:49.048Z,40
2017-03-04T06:52:58.029Z,40
2017-03-04T06:54:07.005Z,45
2017-03-04T06:55:16.085Z,45
2017-03-04T06:56:25.370Z,45
2017-03-04T06:57:34.360Z,45
2017-03-04T06:58:44.164Z,45
2017-03-04T06:59:53.148Z,50
2017-03-04T07:01:02.559Z,50
2017-03-04T07:02:11.847Z,50
2017-03-04T07:03:20.823Z,50
2017-03-04T07:04:30.019Z,50
2017-03-04T07:05:39.432Z,50
2017-03-04T07:06:48.424Z,55
2017-03-04T07:07:57.697Z,55
2017-03-04T07:09:06.698Z,55
2017-03-04T07:10:15.697Z,55
2017-03-04T07:11:25.075Z,55
2017-03-04T07:12:34.066Z,60
2017-03-04T07:13:43.298Z,60
2017-03-04T07:14:52.284Z,60
2017-03-04T07:16:01.366Z,60
2017-03-04T07:17:10.349Z,60
2017-03-04T07:18:19.334Z,60
2017-03-04T07:19:28.663Z,65
2017-03-04T07:20:37.670Z,65
2017-03-04T07:21:46.648Z,65
2017-03-04T07:22:55.631Z,65
2017-03-04T07:24:04.715Z,65
2017-03-04T07:25:13.957Z,70
2017-03-04T07:26:23.001Z,70
2017-03-04T07:27:32.014Z,70
2017-03-04T07:28:41.008Z,70
2017-03-04T07:29:49.994Z,70
2017-03-04T07:30:59.258Z,70
2017-03-04T07:32:08.245Z,70
2017-03-04T07:33:17.861Z,75
2017-03-04T07:34:26.857Z,75
2017-03-04T07:35:35.962Z,75
2017-03-04T07:36:45.345Z,75
2017-03-04T07:37:54.329Z,75
2017-03-04T07:39:03.502Z,75
2017-03-04T07:40:12.491Z,75
2017-03-04T07:41:21.566Z,75
2017-03-04T07:42:31.402Z,75
2017-03-04T07:43:40.380Z,75
2017-03-04T07:44:49.364Z,75
2017-03-04T07:45:58.369Z,75
2017-03-04T07:47:07.363Z,75
2017-03-04T07:48:16.742Z,75
2017-03-04T07:49:25.732Z,75
2017-03-04T07:50:34.730Z,75
2017-03-04T07:51:43.724Z,75
2017-03-04T07:52:52.711Z,75
2017-03-04T07:54:01.999Z,75
2017-03-04T07:55:10.974Z,75
2017-03-04T07:56:19.967Z,75
2017-03-04T07:57:29.000Z,75
2017-03-04T07:58:38.046Z,80
2017-03-04T07:59:47.442Z,80
2017-03-04T08:00:56.454Z,80
2017-03-04T08:02:05.504Z,80
2017-03-04T08:03:14.995Z,80
2017-03-04T08:04:24.020Z,80
2017-03-04T08:05:33.266Z,85
2017-03-04T08:06:42.703Z,85
2017-03-04T08:07:51.734Z,85
2017-03-04T08:09:00.869Z,85
2017-03-04T08:10:09.862Z,85
2017-03-04T08:11:19.358Z,85
2017-03-04T08:12:28.478Z,85
2017-03-04T08:13:37.658Z,85
2017-03-04T08:14:46.824Z,85
2017-03-04T08:15:55.943Z,85
2017-03-04T08:17:05.346Z,85
2017-03-04T08:18:14.362Z,85
2017-03-04T08:19:23.631Z,85
2017-03-04T08:20:32.639Z,85
2017-03-04T08:21:41.825Z,85
2017-03-04T08:22:51.112Z,85
2017-03-04T08:24:00.111Z,90
2017-03-04T08:25:09.168Z,90
2017-03-04T08:26:18.187Z,90
2017-03-04T08:27:27.228Z,90
2017-03-04T08:28:36.630Z,95
2017-03-04T08:29:46.034Z,95
2017-03-04T08:30:55.384Z,95
2017-03-04T08:32:04.781Z,100
2017-03-04T08:33:14.103Z,100
2017-03-04T08:34:23.494Z,100
2017-03-04T08:35:32.626Z,100
2017-03-04T08:36:41.740Z,100
2017-03-04T08:37:50.719Z,105
2017-03-04T08:38:59.959Z,100
2017-03-04T08:40:09.272Z,105
2017-03-04T08:41:18.311Z,105
2017-03-04T08:42:27.420Z,105
2017-03-04T08:43:36.583Z,105
2017-03-04T08:44:45.690Z,110
2017-03-04T08:45:54.993Z,110
2017-03-04T08:47:04.059Z,110
2017-03-04T08:48:13.156Z,110
2017-03-04T08:49:22.177Z,115
2017-03-04T08:50:31.166Z,120
2017-03-04T08:51:40.449Z,120
2017-03-04T08:52:49.451Z,120
2017-03-04T08:53:58.552Z,125
2017-03-04T08:55:07.547Z,125
2017-03-04T08:56:16.614Z,125
2017-03-04T08:57:25.907Z,125
2017-03-04T08:58:34.884Z,125
2017-03-04T08:59:43.874Z,125
2017-03-04T09:00:53.008Z,125
2017-03-04T09:02:02.008Z,125
2017-03-04T09:03:11.267Z,125
2017-03-04T09:04:20.301Z,125
2017-03-04T09:05:29.482Z,125
2017-03-04T09:06:38.535Z,125
2017-03-04T09:07:47.842Z,120
2017-03-04T09:08:57.261Z,120
2017-03-04T09:10:06.657Z,120
2017-03-04T09:11:16.045Z,120
2017-03-04T09:12:25.148Z,120
2017-03-04T09:13:34.223Z,120
2017-03-04T09:14:43.594Z,120
2017-03-04T09:15:52.591Z,120
2017-03-04T09:17:01.573Z,115
2017-03-04T09:18:10.575Z,115
2017-03-04T09:19:19.660Z,115
2017-03-04T09:20:29.078Z,115
2017-03-04T09:21:38.115Z,115
2017-03-04T09:22:47.563Z,110
2017-03-04T09:23:56.599Z,110
2017-03-04T09:25:06.131Z,110
2017-03-04T09:26:15.701Z,110
2017-03-04T09:27:24.711Z,110
2017-03-04T09:28:33.807Z,110
2017-03-04T09:29:42.786Z,110
2017-03-04T09:30:51.774Z,115
2017-03-04T09:32:01.498Z,115
2017-03-04T09:33:10.571Z,115
2017-03-04T09:34:19.554Z,115
2017-03-04T09:35:28.718Z,115
2017-03-04T09:36:37.888Z,115
2017-03-04T09:37:47.221Z,115
2017-03-04T09:38:56.259Z,110
2017-03-04T09:40:05.389Z,110
2017-03-04T09:41:14.477Z,105
2017-03-04T09:42:23.541Z,100
2017-03-04T09:43:33.258Z,100
2017-03-04T09:44:42.245Z,100
2017-03-04T09:45:51.520Z,100
2017-03-04T09:47:00.572Z,100
2017-03-04T09:48:09.573Z,100
2017-03-04T09:49:18.904Z,100
2017-03-04T09:50:28.298Z,100
2017-03-04T09:51:37.561Z,100
2017-03-04T09:52:46.567Z,95
2017-03-04T09:53:55.554Z,100
2017-03-04T09:55:04.788Z,100
2017-03-04T09:56:13.889Z,100
2017-03-04T09:57:22.880Z,100
2017-03-04T09:58:32.284Z,95
2017-03-04T09:59:41.355Z,95
2017-03-04T10:00:50.583Z,95
2017-03-04T10:01:59.577Z,95
2017-03-04T10:03:08.664Z,95
2017-03-04T10:04:17.670Z,90
2017-03-04T10:05:26.681Z,90
2017-03-04T10:06:35.970Z,90
2017-03-04T10:07:45.383Z,90
2017-03-04T10:08:54.376Z,90
2017-03-04T10:10:03.373Z,90
2017-03-04T10:11:12.362Z,90
2017-03-04T10:12:21.659Z,85
2017-03-04T10:13:31.058Z,85
2017-03-04T10:14:40.061Z,90
2017-03-04T10:15:49.549Z,90
2017-03-04T10:16:58.667Z,90
2017-03-04T10:18:07.950Z,85
2017-03-04T10:19:16.954Z,85
2017-03-04T10:20:25.945Z,85
2017-03-04T10:21:35.029Z,85
2017-03-04T10:22:44.107Z,85
2017-03-04T10:23:53.407Z,85
2017-03-04T10:25:02.397Z,85
2017-03-04T10:26:11.785Z,85
2017-03-04T10:27:20.778Z,85
2017-03-04T10:28:29.785Z,85
2017-03-04T10:29:39.042Z,85
2017-03-04T10:30:48.040Z,85
2017-03-04T10:31:57.034Z,85
2017-03-04T10:33:06.037Z,85
2017-03-04T10:34:15.018Z,85
2017-03-04T10:35:24.320Z,85
2017-03-04T10:36:33.329Z,85
2017-03-04T10:37:42.316Z,85
2017-03-04T10:38:51.294Z,85
2017-03-04T10:40:00.275Z,85
2017-03-04T10:41:09.928Z,85
2017-03-04T10:42:18.918Z,85
2017-03-04T10:43:27.918Z,85
2017-03-04T10:44:36.896Z,80
2017-03-04T10:45:46.000Z,80
2017-03-04T10:46:55.275Z,80
2017-03-04T10:48:04.267Z,85
2017-03-04T10:49:13.256Z,85
2017-03-04T10:50:22.236Z,85
2017-03-04T10:51:31.222Z,85
2017-03-04T10:52:40.520Z,85
2017-03-04T10:53:49.529Z,85
2017-03-04T10:54:58.514Z,85
2017-03-04T10:56:07.500Z,85
2017-03-04T10:57:16.482Z,90
2017-03-04T10:58:26.003Z,90
2017-03-04T10:59:34.978Z,90
2017-03-04T11:00:43.978Z,90
2017-03-04T11:01:52.990Z,90
2017-03-04T11:03:02.392Z,90
2017-03-04T11:04:11.674Z,90
2017-03-04T11:05:20.673Z,85
2017-03-04T11:06:29.669Z,95
2017-03-04T11:07:38.675Z,90
2017-03-04T11:08:47.745Z,85
2017-03-04T11:09:57.136Z,90
2017-03-04T11:11:06.551Z,90
2017-03-04T11:12:15.568Z,90
2017-03-04T11:13:24.568Z,90
2017-03-04T11:14:33.560Z,85
2017-03-04T11:15:42.845Z,90
2017-03-04T11:16:52.027Z,85
2017-03-04T11:18:01.417Z,90
2017-03-04T11:19:10.409Z,90
2017-03-04T11:20:19.397Z,90
2017-03-04T11:21:28.685Z,85
2017-03-04T11:22:37.723Z,85
2017-03-04T11:23:46.709Z,85
2017-03-04T11:24:55.705Z,90
2017-03-04T11:26:04.700Z,80
2017-03-04T11:27:14.005Z,85
2017-03-04T11:28:22.983Z,85
2017-03-04T11:29:31.973Z,85
2017-03-04T11:30:40.972Z,85
2017-03-04T11:31:50.049Z,90
2017-03-04T11:32:59.364Z,85
2017-03-04T11:34:08.752Z,85
2017-03-04T11:35:17.736Z,85
2017-03-04T11:36:26.718Z,85
2017-03-04T11:37:35.808Z,85
2017-03-04T11:38:45.055Z,80
2017-03-04T11:39:54.061Z,85
2017-03-04T11:41:03.079Z,80
2017-03-04T11:42:12.074Z,80
2017-03-04T11:43:21.089Z,80
2017-03-04T11:44:30.379Z,80
2017-03-04T11:45:39.357Z,75
2017-03-04T11:46:48.756Z,75
2017-03-04T11:47:57.766Z,80
2017-03-04T11:49:06.769Z,80
2017-03-04T11:50:16.100Z,75
2017-03-04T11:51:25.113Z,75
2017-03-04T11:52:34.110Z,80
2017-03-04T11:53:43.522Z,85
2017-03-04T11:54:52.514Z,90
2017-03-04T11:56:01.802Z,85
2017-03-04T11:57:10.823Z,80
2017-03-04T11:58:19.922Z,85
2017-03-04T11:59:28.950Z,80
2017-03-04T12:00:38.043Z,80
2017-03-04T12:01:47.288Z,80
2017-03-04T12:02:56.672Z,85
2017-03-04T12:04:05.663Z,90
2017-03-04T12:05:14.752Z,95
2017-03-04T12:06:24.158Z,100
2017-03-04T12:07:33.394Z,110
2017-03-04T12:08:42.489Z,115
2017-03-04T12:09:51.487Z,115
2017-03-04T12:11:00.475Z,115
2017-03-04T12:12:09.451Z,115
2017-03-04T12:13:18.736Z,115
2017-03-04T12:14:28.178Z,120
2017-03-04T12:15:37.191Z,120
2017-03-04T12:16:46.177Z,120
2017-03-04T12:17:55.179Z,120
2017-03-04T12:19:04.556Z,120
2017-03-04T12:20:13.548Z,115
2017-03-04T12:21:22.549Z,115
2017-03-04T12:22:31.555Z,110
2017-03-04T12:23:40.575Z,110
2017-03-04T12:24:50.277Z,105
2017-03-04T12:25:59.259Z,105
2017-03-04T12:27:08.240Z,100
2017-03-04T12:28:17.232Z,100
2017-03-04T12:29:26.218Z,95
2017-03-04T12:30:35.513Z,95
2017-03-04T12:31:44.606Z,95
2017-03-04T12:32:54.014Z,95
2017-03-04T12:34:03.018Z,95
2017-03-04T12:35:12.099Z,95
2017-03-04T12:36:21.465Z,95
2017-03-04T12:37:30.448Z,95
2017-03-04T12:38:39.861Z,95
2017-03-04T12:39:48.861Z,95
2017-03-04T12:40:58.269Z,90
2017-03-04T12:42:07.587Z,90
2017-03-04T12:43:16.592Z,95
2017-03-04T12:44:25.984Z,90
2017-03-04T12:45:35.073Z,90
2017-03-04T12:46:44.062Z,90
2017-03-04T12:47:53.369Z,90
2017-03-04T12:49:02.440Z,90
2017-03-04T12:50:11.459Z,90
2017-03-04T12:51:20.475Z,90
2017-03-04T12:52:29.463Z,85
2017-03-04T12:53:38.752Z,85
2017-03-04T12:54:47.783Z,85
2017-03-04T12:55:56.864Z,85
2017-03-04T12:57:05.853Z,85
2017-03-04T12:58:14.841Z,85
2017-03-04T12:59:24.128Z,85
2017-03-04T13:00:33.246Z,85
2017-03-04T13:01:42.250Z,85
2017-03-04T13:02:51.261Z,85
2017-03-04T13:04:00.242Z,85
2017-03-04T13:05:09.501Z,85
2017-03-04T13:06:18.544Z,85
2017-03-04T13:07:27.613Z,85
2017-03-04T13:08:36.604Z,85
2017-03-04T13:09:45.595Z,85
2017-03-04T13:10:54.892Z,85
2017-03-04T13:12:03.874Z,85
2017-03-04T13:13:13.300Z,85
2017-03-04T13:14:22.280Z,85
2017-03-04T13:15:31.262Z,85
2017-03-04T13:16:40.572Z,85
2017-03-04T13:17:49.962Z,85
2017-03-04T13:18:59.064Z,85
2017-03-04T13:20:08.062Z,85
2017-03-04T13:21:17.129Z,85
2017-03-04T13:22:26.411Z,85
2017-03-04T13:23:35.417Z,85
2017-03-04T13:24:44.489Z,85
2017-03-04T13:25:53.494Z,90
2017-03-04T13:27:02.658Z,90
2017-03-04T13:28:11.979Z,90
2017-03-04T13:29:21.052Z,90
2017-03-04T13:30:30.049Z,90
2017-03-04T13:31:39.046Z,90
2017-03-04T13:32:48.125Z,90
2017-03-04T13:33:57.430Z,90
2017-03-04T13:35:06.419Z,85
2017-03-04T13:36:15.399Z,85
2017-03-04T13:37:24.397Z,85
2017-03-04T13:38:33.469Z,85
2017-03-04T13:39:42.857Z,90
2017-03-04T13:40:51.848Z,85
2017-03-04T13:42:00.849Z,85
2017-03-04T13:43:10.295Z,85
2017-03-04T13:44:19.291Z,85
2017-03-04T13:45:28.588Z,85
2017-03-04T13:46:37.594Z,80
2017-03-04T13:47:46.596Z,80
2017-03-04T13:48:55.597Z,80
2017-03-04T13:50:04.584Z,75
2017-03-04T13:51:13.873Z,75
2017-03-04T13:52:22.880Z,75
2017-03-04T13:53:31.881Z,75
2017-03-04T13:54:40.867Z,70
2017-03-04T13:55:49.944Z,70
2017-03-04T13:56:59.239Z,70
2017-03-04T13:58:08.238Z,70
2017-03-04T13:59:17.223Z,70
2017-03-04T14:00:26.236Z,70
2017-03-04T14:01:35.236Z,70
2017-03-04T14:02:44.654Z,70
2017-03-04T14:03:53.647Z,70
2017-03-04T14:05:02.657Z,70
2017-03-04T14:06:11.665Z,70
2017-03-04T14:07:20.762Z,70
2017-03-04T14:08:30.046Z,70
2017-03-04T14:09:39.028Z,70
2017-03-04T14:10:48.110Z,70
2017-03-04T14:11:57.116Z,75
2017-03-04T14:13:06.103Z,75
2017-03-04T14:14:15.393Z,75
2017-03-04T14:15:24.390Z,80
2017-03-04T14:16:33.377Z,80
2017-03-04T14:17:42.394Z,80
2017-03-04T14:18:51.398Z,80
2017-03-04T14:20:00.693Z,80
2017-03-04T14:21:09.778Z,80
2017-03-04T14:22:18.761Z,80
2017-03-04T14:23:28.176Z,80
2017-03-04T14:24:37.185Z,80
2017-03-04T14:25:46.510Z,80
2017-03-04T14:26:55.515Z,75
2017-03-04T14:28:04.511Z,75
2017-03-04T14:29:13.507Z,75
2017-03-04T14:30:22.497Z,75
2017-03-04T14:31:31.787Z,75
2017-03-04T14:32:40.781Z,75
2017-03-04T14:33:49.790Z,75
2017-03-04T14:34:58.774Z,75
2017-03-04T14:36:07.855Z,75
2017-03-04T14:37:17.104Z,70
2017-03-04T14:38:26.108Z,70
2017-03-04T14:39:35.093Z,65
2017-03-04T14:40:44.120Z,65
2017-03-04T14:41:53.134Z,65
2017-03-04T14:43:02.470Z,65
2017-03-04T14:44:11.542Z,65
2017-03-04T14:45:20.540Z,65
2017-03-04T14:46:29.612Z,65
2017-03-04T14:47:38.622Z,65
2017-03-04T14:48:47.923Z,60
2017-03-04T14:49:57.107Z,60
2017-03-04T14:51:06.197Z,60
2017-03-04T14:52:15.197Z,60
2017-03-04T14:53:24.199Z,55
2017-03-04T14:54:33.502Z,55
2017-03-04T14:55:42.506Z,55
2017-03-04T14:56:51.926Z,50
2017-03-04T14:58:01.350Z,50
2017-03-04T14:59:10.455Z,50
2017-03-04T15:00:19.768Z,50
2017-03-04T15:01:28.848Z,45
2017-03-04T15:02:37.844Z,45
2017-03-04T15:03:46.845Z,45
2017-03-04T15:04:55.844Z,45
2017-03-04T15:06:05.154Z,45
2017-03-04T15:07:14.147Z,45
2017-03-04T15:08:23.121Z,40
2017-03-04T15:09:32.118Z,40
2017-03-04T15:10:41.130Z,40
2017-03-04T15:11:50.416Z,40
2017-03-04T15:12:59.524Z,40
2017-03-04T15:14:08.533Z,40
2017-03-04T15:15:17.531Z,40
2017-03-04T15:16:26.621Z,40
2017-03-04T15:17:35.913Z,40
2017-03-04T15:18:44.907Z,40
2017-03-04T15:19:53.898Z,40
2017-03-04T15:21:02.919Z,40
2017-03-04T15:22:12.006Z,40
2017-03-04T15:23:21.494Z,40
2017-03-04T15:24:30.493Z,40
2017-03-04T15:25:39.493Z,40
2017-03-04T15:26:48.599Z,40
2017-03-04T15:27:57.691Z,40
2017-03-04T15:29:07.069Z,40
2017-03-04T15:30:16.154Z,40
2017-03-04T15:31:25.145Z,40
2017-03-04T15:32:34.147Z,40
2017-03-04T15:33:43.144Z,40
2017-03-04T15:34:52.958Z,40
2017-03-04T15:36:01.957Z,35
2017-03-04T15:37:10.946Z,35
2017-03-04T15:38:19.936Z,35
2017-03-04T15:39:29.000Z,35
2017-03-04T15:40:38.381Z,35
2017-03-04T15:41:47.468Z,35
2017-03-04T15:42:56.476Z,35
2017-03-04T15:44:05.471Z,35
2017-03-04T15:45:14.464Z,30
2017-03-04T15:46:23.923Z,30
2017-03-04T15:47:32.934Z,30
2017-03-04T15:48:41.938Z,30
2017-03-04T15:49:51.046Z,30
2017-03-04T15:51:00.034Z,30
2017-03-04T15:52:09.337Z,30
2017-03-04T15:53:18.407Z,30
2017-03-04T15:54:27.429Z,25
2017-03-04T15:55:36.426Z,25
2017-03-04T15:56:45.408Z,25
2017-03-04T15:57:54.670Z,25
2017-03-04T15:59:04.080Z,25
2017-03-04T16:00:13.080Z,25
2017-03-04T16:01:22.174Z,25
2017-03-04T16:02:31.250Z,20
2017-03-04T16:03:40.651Z,20
2017-03-04T16:04:49.636Z,20
2017-03-04T16:05:58.634Z,20
2017-03-04T16:07:07.639Z,20
2017-03-04T16:08:16.652Z,20
2017-03-04T16:09:25.950Z,15
2017-03-04T16:10:34.954Z,15
2017-03-04T16:11:44.049Z,15
2017-03-04T16:12:53.045Z,15
2017-03-04T16:14:02.043Z,15
2017-03-04T16:15:11.303Z,15
2017-03-04T16:16:20.375Z,15
2017-03-04T16:17:29.360Z,15
2017-03-04T16:18:38.365Z,15
2017-03-04T16:19:47.370Z,15
2017-03-04T16:20:56.660Z,10
2017-03-04T16:22:05.643Z,10
2017-03-04T16:23:14.639Z,10
2017-03-04T16:24:23.635Z,10
2017-03-04T16:25:32.722Z,10
2017-03-04T16:26:42.445Z,10
2017-03-04T16:27:51.424Z,10
2017-03-04T16:29:00.515Z,10
2017-03-04T16:30:09.916Z,10
2017-03-04T16:31:18.904Z,5
2017-03-04T16:32:28.366Z,5
2017-03-04T16:33:37.372Z,5
2017-03-04T16:34:46.361Z,5
2017-03-04T16:35:55.347Z,5
2017-03-04T16:37:04.354Z,5